Time;durP1;ratioP1;P1;durP2;ratioP2;P2;SDS_P1;SDS_P2;PMS_P1;PMS_P2;Temp;Humidity;BMP_temperature;BMP_pressure;BME280_temperature;BME280_humidity;BME280_pressure;Samples;Min_cycle;Max_cycle;Signal;HPM_P1;HPM_P2
2022/02/03 00:00:06;;;;;;;;;4.50;4.50;;;;;12.35;56.61;102273.38;5040741;28;45457;-81
2022/02/03 00:02:38;;;;;;;;;5.00;4.25;;;;;12.39;56.96;102266.28;5041289;28;45454;-82
2022/02/03 00:05:43;;;;;;;;;5.50;3.00;;;;;12.35;56.77;102257.53;5041000;28;45299;-82
2022/02/03 00:26:46;;;;;;;;;4.25;4.25;;;;;12.33;56.13;102234.75;5040729;28;45552;-82
2022/02/03 00:29:26;;;;;;;;;4.00;4.00;;;;;12.34;56.32;102242.63;5036253;28;45216;-82
2022/02/03 00:32:07;;;;;;;;;4.25;4.00;;;;;12.32;55.88;102241.78;5040297;28;45430;-81
2022/02/03 00:34:44;;;;;;;;;6.00;3.25;;;;;12.30;55.90;102235.66;5040589;28;46224;-82
2022/02/03 00:37:30;;;;;;;;;4.50;3.75;;;;;12.30;55.82;102240.09;5040585;28;45622;-82
2022/02/03 00:48:24;;;;;;;;;4.75;3.75;;;;;12.21;55.07;102236.69;5040523;28;45765;-81
2022/02/03 00:50:51;;;;;;;;;4.00;3.25;;;;;12.19;55.42;102227.94;5040224;28;45320;-81
2022/02/03 00:53:19;;;;;;;;;5.50;3.50;;;;;12.19;55.62;102232.34;5039357;28;45224;-81
2022/02/03 00:55:47;;;;;;;;;3.75;3.75;;;;;12.19;55.61;102229.69;5039978;28;45659;-81
2022/02/03 00:58:17;;;;;;;;;5.00;3.50;;;;;12.21;56.10;102231.41;5040358;28;45329;-81
2022/02/03 01:00:49;;;;;;;;;5.00;5.00;;;;;12.18;55.26;102227.94;5040341;28;45213;-80
2022/02/03 01:03:16;;;;;;;;;4.75;3.75;;;;;12.16;55.65;102225.34;5039588;28;45261;-84
2022/02/03 01:05:46;;;;;;;;;3.00;3.00;;;;;12.17;56.00;102227.09;5039514;28;45258;-83
2022/02/03 01:08:19;;;;;;;;;4.50;4.50;;;;;12.20;55.53;102227.03;5039860;28;45329;-83
2022/02/03 01:10:57;;;;;;;;;5.25;4.00;;;;;12.19;56.23;102227.94;5040336;28;45476;-83
2022/02/03 01:33:28;;;;;;;;;4.00;4.00;;;;;12.19;55.96;102220.03;5039996;28;45264;-82
2022/02/03 01:43:57;;;;;;;;;4.75;4.50;;;;;12.09;55.13;102229.81;5039762;28;45331;-82
2022/02/03 01:46:41;;;;;;;;;5.00;4.00;;;;;12.07;54.94;102218.44;5039726;28;45295;-82
2022/02/03 01:49:15;;;;;;;;;3.00;3.00;;;;;12.05;55.42;102217.56;5039348;28;45434;-82
2022/02/03 01:51:55;;;;;;;;;6.00;4.00;;;;;12.04;55.07;102223.75;5039597;28;45478;-82
2022/02/03 01:54:30;;;;;;;;;3.00;2.25;;;;;12.04;55.03;102215.84;5039201;28;45466;-82
2022/02/03 01:57:06;;;;;;;;;5.25;4.75;;;;;12.04;55.57;102215.84;5037719;28;45258;-81
2022/02/03 01:59:34;;;;;;;;;4.50;3.00;;;;;12.03;55.58;102219.34;5039608;28;45331;-81
2022/02/03 02:02:04;;;;;;;;;4.25;4.25;;;;;12.02;55.52;102212.34;5038974;28;45430;-85
2022/02/03 02:04:54;;;;;;;;;4.25;4.25;;;;;12.04;55.51;102202.66;5039755;28;45371;-83
2022/02/03 02:08:05;;;;;;;;;8.25;5.50;;;;;12.04;55.59;102207.94;5037136;28;45170;-86
2022/02/03 02:16:37;;;;;;;;;4.25;3.25;;;;;12.00;55.29;102198.34;5037879;28;45257;-86
2022/02/03 02:43:53;;;;;;;;;4.25;4.00;;;;;11.87;55.47;102137.94;5040406;28;45422;-84
2022/02/03 02:46:51;;;;;;;;;3.50;3.50;;;;;11.88;55.46;102134.38;5042428;28;45646;-84
2022/02/03 02:49:28;;;;;;;;;4.00;4.00;;;;;11.87;55.40;102119.47;5042603;28;45375;-85
2022/02/03 02:52:02;;;;;;;;;7.00;5.00;;;;;11.87;54.90;102103.69;5028821;28;46675;-86
2022/02/03 02:55:16;;;;;;;;;4.50;3.50;;;;;11.89;55.23;102096.63;5041580;28;46099;-85
2022/02/03 03:36:56;;;;;;;;;6.00;4.50;;;;;11.86;55.94;102000.94;5038757;28;45414;-82
2022/02/03 03:39:38;;;;;;;;;7.00;4.50;;;;;11.85;55.83;101996.59;5041148;28;46101;-80
2022/02/03 03:42:06;;;;;;;;;8.75;6.25;;;;;11.86;55.73;101996.53;5040356;28;45720;-82
2022/02/03 03:44:34;;;;;;;;;6.00;5.75;;;;;11.85;55.66;101994.81;5040985;28;45289;-82
2022/02/03 03:47:05;;;;;;;;;8.50;5.75;;;;;11.86;55.89;102001.81;5041423;28;45461;-82
2022/02/03 03:49:44;;;;;;;;;5.50;5.00;;;;;11.87;55.89;102010.59;5023347;28;46148;-82
2022/02/03 03:52:17;;;;;;;;;4.00;4.00;;;;;11.87;55.95;101997.41;5041407;28;45645;-82
2022/02/03 03:55:05;;;;;;;;;5.00;5.00;;;;;11.85;55.90;101994.81;5041221;28;45211;-80
2022/02/03 05:13:12;;;;;;;;;5.00;5.00;;;;;11.70;56.39;101888.81;5040727;28;45252;-89
2022/02/03 05:35:07;;;;;;;;;9.50;8.75;;;;;11.65;56.13;101893.34;5039829;28;45224;-86
2022/02/03 05:43:22;;;;;;;;;9.00;7.50;;;;;11.59;56.03;101882.91;5039581;28;45309;-85
2022/02/03 05:51:31;;;;;;;;;8.25;8.25;;;;;11.52;56.26;101884.78;5033320;28;45530;-85
2022/02/03 06:02:40;;;;;;;;;10.75;10.50;;;;;11.49;55.86;101882.22;5032850;28;45349;-95
2022/02/03 06:05:09;;;;;;;;;8.50;8.00;;;;;11.50;55.92;101890.97;5040719;28;45147;-87
2022/02/03 06:15:32;;;;;;;;;11.75;11.25;;;;;11.47;56.06;101861.19;5037688;28;45244;-88
2022/02/03 06:23:43;;;;;;;;;10.00;8.50;;;;;11.48;56.63;101843.63;5042926;28;45398;-90
2022/02/03 06:29:05;;;;;;;;;10.00;9.75;;;;;11.50;56.37;101820.78;5043633;28;46063;-95
2022/02/03 06:31:34;;;;;;;;;11.75;11.00;;;;;11.50;55.98;101819.91;5024926;28;45171;-94
2022/02/03 06:33:59;;;;;;;;;8.50;8.50;;;;;11.48;56.08;101820.78;5026307;28;45366;-95
2022/02/03 06:36:25;;;;;;;;;11.50;11.50;;;;;11.47;55.81;101819.06;5029770;28;46053;-90
2022/02/03 06:38:50;;;;;;;;;10.00;9.75;;;;;11.46;55.96;101814.69;5024328;28;47835;-92
2022/02/03 06:41:16;;;;;;;;;12.00;11.25;;;;;11.46;55.85;101819.06;5044196;28;45742;-90
2022/02/03 06:43:43;;;;;;;;;11.00;10.25;;;;;11.44;56.42;101805.06;5024238;28;45301;-91
2022/02/03 06:46:09;;;;;;;;;10.00;10.00;;;;;11.44;56.03;101799.81;5042378;28;45356;-92
2022/02/03 06:48:36;;;;;;;;;17.75;13.00;;;;;11.43;55.94;101793.66;5042518;28;45637;-93
2022/02/03 06:51:16;;;;;;;;;12.00;11.25;;;;;11.40;56.27;101787.63;5041147;28;45430;-92
2022/02/03 06:53:45;;;;;;;;;12.00;12.00;;;;;11.35;55.89;101787.72;5029837;28;45224;-93
2022/02/03 06:56:25;;;;;;;;;14.75;13.00;;;;;11.33;55.52;101792.13;5041468;28;45350;-92
2022/02/03 06:58:56;;;;;;;;;13.50;13.50;;;;;11.33;55.88;101781.59;5042140;28;46236;-91
2022/02/03 07:01:33;;;;;;;;;13.25;13.25;;;;;11.32;56.04;101790.38;5042669;28;45752;-91
2022/02/03 07:04:03;;;;;;;;;12.50;12.50;;;;;11.32;56.34;101780.75;5042673;28;45432;-92
2022/02/03 07:06:29;;;;;;;;;17.00;14.00;;;;;11.31;56.33;101779.00;5024511;28;46114;-92
2022/02/03 07:08:55;;;;;;;;;14.00;12.25;;;;;11.34;56.07;101785.97;5041742;28;46443;-92
2022/02/03 07:11:23;;;;;;;;;17.50;15.25;;;;;11.34;56.12;101792.09;5024631;28;45451;-92
2022/02/03 07:13:48;;;;;;;;;14.50;13.50;;;;;11.35;56.20;101798.25;5024085;28;45443;-88
2022/02/03 07:16:13;;;;;;;;;23.25;17.50;;;;;11.33;55.57;101794.78;5040640;28;45381;-94
2022/02/03 07:18:39;;;;;;;;;16.00;15.00;;;;;11.27;55.84;101803.66;5023903;28;47427;-92
2022/02/03 07:21:05;;;;;;;;;12.00;12.00;;;;;11.24;55.99;101804.56;5035981;28;45438;-93
2022/02/03 07:23:30;;;;;;;;;14.25;11.75;;;;;11.25;56.08;101792.28;5029496;28;45271;-94
2022/02/03 07:25:55;;;;;;;;;13.00;13.00;;;;;11.25;55.90;101795.78;5009030;28;46973;-93
2022/02/03 07:28:21;;;;;;;;;18.50;14.00;;;;;11.24;55.97;101801.94;5016503;28;48277;-92
2022/02/03 07:30:46;;;;;;;;;15.50;14.00;;;;;11.24;55.90;101815.09;5041191;28;45363;-93
2022/02/03 07:33:12;;;;;;;;;13.00;13.00;;;;;11.22;55.75;101813.38;5041562;28;45437;-92
2022/02/03 07:35:38;;;;;;;;;14.50;13.50;;;;;11.19;55.67;101821.31;5021828;28;46204;-94
2022/02/03 07:38:06;;;;;;;;;13.00;13.00;;;;;11.17;55.65;101818.72;5023586;28;47842;-92
2022/02/03 07:40:32;;;;;;;;;13.50;11.50;;;;;11.17;55.81;101799.44;5041435;28;45357;-93
2022/02/03 07:42:58;;;;;;;;;16.75;15.00;;;;;11.17;55.71;101812.59;5021902;28;45420;-93
2022/02/03 07:45:23;;;;;;;;;17.75;16.75;;;;;11.18;56.19;101817.84;5022651;28;46097;-93
2022/02/03 07:47:51;;;;;;;;;15.00;11.50;;;;;11.18;55.94;101807.31;5021870;28;48190;-92
2022/02/03 07:50:17;;;;;;;;;14.50;13.75;;;;;11.18;56.08;101798.56;5023644;28;45454;-93
2022/02/03 07:52:43;;;;;;;;;10.00;10.00;;;;;11.18;55.93;101804.69;5023992;28;45299;-94
2022/02/03 07:55:11;;;;;;;;;14.00;12.75;;;;;11.22;56.01;101816.88;5022318;28;45933;-93
2022/02/03 07:57:37;;;;;;;;;15.25;12.25;;;;;11.20;56.00;101818.69;5030118;28;47028;-94
2022/02/03 08:00:06;;;;;;;;;11.00;11.00;;;;;11.19;55.55;101821.31;5023685;28;45341;-93
2022/02/03 08:02:31;;;;;;;;;13.00;13.00;;;;;11.17;55.80;101810.84;5032999;28;45255;-94
2022/02/03 08:04:57;;;;;;;;;15.75;13.25;;;;;11.13;55.50;101809.16;5022647;28;46816;-94
2022/02/03 08:07:24;;;;;;;;;13.75;12.75;;;;;11.14;55.86;101810.88;5041267;28;46431;-94
2022/02/03 08:12:17;;;;;;;;;11.00;11.00;;;;;11.16;56.08;101810.88;5041469;28;45469;-94
2022/02/03 08:14:47;;;;;;;;;16.75;14.50;;;;;11.18;55.75;101809.97;5040970;28;45409;-93
2022/02/03 08:17:19;;;;;;;;;14.75;13.50;;;;;11.16;55.83;101805.63;5031840;28;46654;-94
2022/02/03 08:22:27;;;;;;;;;13.75;13.75;;;;;11.17;55.76;101809.97;5038038;28;45160;-93
2022/02/03 08:25:03;;;;;;;;;16.00;14.75;;;;;11.11;55.66;101806.53;5021649;28;46124;-93
2022/02/03 08:32:25;;;;;;;;;14.00;13.50;;;;;11.07;56.03;101812.75;5039806;28;45826;-92
2022/02/03 08:37:21;;;;;;;;;22.75;16.75;;;;;11.08;55.68;101811.88;5029074;28;45428;-94
2022/02/03 08:39:56;;;;;;;;;17.00;14.50;;;;;11.08;56.22;101811.00;5026302;28;45676;-94
2022/02/03 08:42:22;;;;;;;;;16.00;13.00;;;;;11.08;56.20;101805.75;5020843;28;45225;-94
2022/02/03 08:44:48;;;;;;;;;16.50;16.50;;;;;11.13;56.33;101806.53;5029807;28;47179;-93
2022/02/03 08:47:14;;;;;;;;;14.75;13.25;;;;;11.14;56.57;101795.09;5018564;28;48122;-92
2022/02/03 08:49:45;;;;;;;;;18.00;15.50;;;;;11.14;56.43;101789.84;5037133;28;45408;-93
2022/02/03 08:52:17;;;;;;;;;15.25;14.50;;;;;11.13;55.94;101790.75;5021194;28;45259;-92
2022/02/03 08:55:03;;;;;;;;;16.00;13.75;;;;;11.14;56.25;101784.56;5039940;28;45459;-92
2022/02/03 09:59:19;;;;;;;;;18.25;17.00;;;;;11.17;56.14;101737.16;5000920;28;45214;-96
2022/02/03 10:01:52;;;;;;;;;22.50;17.50;;;;;11.17;56.06;101731.91;5008500;28;47318;-96
2022/02/03 10:04:46;;;;;;;;;19.25;16.25;;;;;11.17;56.10;101721.38;5029192;28;45364;-96
2022/02/03 10:07:20;;;;;;;;;20.25;17.00;;;;;11.18;55.90;101725.75;5018668;28;45198;-96
2022/02/03 10:09:52;;;;;;;;;17.75;16.00;;;;;11.17;55.98;101718.75;5042078;28;47051;-96
2022/02/03 10:12:18;;;;;;;;;17.25;15.25;;;;;11.21;55.58;101709.88;5046717;28;47273;-96
2022/02/03 10:14:47;;;;;;;;;15.50;15.00;;;;;11.22;56.16;101726.53;5033996;28;45365;-96
2022/02/03 10:17:15;;;;;;;;;14.50;14.50;;;;;11.22;55.74;101716.88;5029141;28;45246;-95
2022/02/03 10:19:44;;;;;;;;;13.50;13.00;;;;;11.28;55.71;101731.69;5026706;28;46338;-96
2022/02/03 10:22:21;;;;;;;;;12.00;12.00;;;;;11.29;55.79;101722.88;5024229;28;47917;-96
2022/02/03 10:24:50;;;;;;;;;20.25;16.75;;;;;11.30;55.51;101718.50;5023389;28;45268;-96
2022/02/03 10:27:28;;;;;;;;;16.75;16.00;;;;;11.35;55.84;101730.69;5031066;28;45486;-96
2022/02/03 10:30:13;;;;;;;;;15.00;15.00;;;;;11.38;55.42;101727.13;5030050;28;46178;-96
2022/02/03 10:32:40;;;;;;;;;17.00;16.75;;;;;11.34;55.51;101734.19;5028146;28;47193;-96
2022/02/03 10:35:54;;;;;;;;;18.75;16.50;;;;;11.39;54.99;101731.47;5030360;28;45194;-96
2022/02/03 10:50:07;;;;;;;;;14.75;13.75;;;;;11.42;55.34;101756.84;5052444;28;45395;-96
2022/02/03 10:55:23;;;;;;;;;18.00;17.25;;;;;11.35;55.11;101753.50;5067525;28;46051;-96
2022/02/03 11:11:21;;;;;;;;;22.75;17.75;;;;;11.31;55.82;101722.88;5047930;28;45478;-94
2022/02/03 11:13:50;;;;;;;;;22.25;20.25;;;;;11.32;55.35;101711.44;5025061;28;46597;-96
2022/02/03 11:16:18;;;;;;;;;18.75;17.00;;;;;11.33;55.87;101702.66;5027656;28;47273;-95
2022/02/03 11:18:46;;;;;;;;;22.75;20.25;;;;;11.34;56.05;101692.06;5040924;28;45775;-94
2022/02/03 11:21:16;;;;;;;;;20.50;19.50;;;;;11.38;55.77;101698.16;5041163;28;45288;-94
2022/02/03 11:23:58;;;;;;;;;22.00;17.50;;;;;11.38;56.12;101690.25;5024521;28;46207;-93
2022/02/03 11:27:35;;;;;;;;;21.00;20.00;;;;;11.40;56.17;101692.84;5030166;28;47952;-95
2022/02/03 11:32:15;;;;;;;;;24.00;17.50;;;;;11.45;55.94;101673.44;5036166;28;45335;-95
2022/02/03 11:37:59;;;;;;;;;17.50;15.75;;;;;11.49;55.99;101679.50;5040781;28;46186;-93
2022/02/03 11:43:25;;;;;;;;;18.75;18.75;;;;;11.51;55.32;101679.47;5041686;28;45202;-93
2022/02/03 11:46:16;;;;;;;;;24.25;19.75;;;;;11.47;55.80;101666.38;5041067;28;45540;-93
2022/02/03 12:19:38;;;;;;;;;25.75;22.50;;;;;11.37;56.23;101638.50;5041119;28;45419;-90
2022/02/03 12:27:30;;;;;;;;;29.50;25.25;;;;;11.09;56.01;101625.94;5040812;28;45303;-91
2022/02/03 12:30:04;;;;;;;;;24.50;21.00;;;;;11.10;56.14;101623.28;5012093;28;47231;-91
2022/02/03 12:38:05;;;;;;;;;31.75;27.25;;;;;11.20;57.13;101599.41;5040985;28;45285;-94
2022/02/03 12:45:48;;;;;;;;;30.75;22.00;;;;;11.28;56.48;101604.50;5040543;28;45274;-93
2022/02/03 12:48:23;;;;;;;;;30.00;22.75;;;;;11.31;56.34;101607.06;5041087;28;45220;-86
2022/02/03 12:50:48;;;;;;;;;24.25;22.75;;;;;11.28;56.23;101596.59;5042692;28;45157;-93
2022/02/03 12:53:15;;;;;;;;;29.50;24.25;;;;;11.31;56.36;101609.69;5040584;28;45415;-93
2022/02/03 12:55:42;;;;;;;;;30.50;22.75;;;;;11.31;56.34;101601.81;5040465;28;45919;-91
2022/02/03 12:58:14;;;;;;;;;28.25;23.25;;;;;11.32;56.42;101604.41;5040064;28;45524;-93
2022/02/03 13:00:48;;;;;;;;;20.25;16.75;;;;;11.35;56.64;101601.69;5035767;28;45272;-92
2022/02/03 13:03:16;;;;;;;;;23.75;23.00;;;;;11.34;55.96;101597.31;5022681;28;47524;-94
2022/02/03 13:05:53;;;;;;;;;28.50;28.00;;;;;11.31;56.78;101592.13;5039302;28;45414;-92
2022/02/03 13:08:21;;;;;;;;;28.50;27.25;;;;;11.29;56.14;101593.06;5038996;28;44851;-90
2022/02/03 13:10:53;;;;;;;;;21.50;20.50;;;;;11.31;56.91;101581.59;5038699;28;46550;-93
2022/02/03 13:13:53;;;;;;;;;22.00;21.00;;;;;11.37;56.86;101577.97;5019814;28;48254;-92
2022/02/03 13:16:09;;;;;;;;;28.00;23.75;;;;;11.42;56.82;101577.84;5043556;28;45395;-94
2022/02/03 13:18:38;;;;;;;;;30.00;24.00;;;;;11.46;57.00;101584.78;5040205;28;45287;-93
2022/02/03 13:21:48;;;;;;;;;27.00;24.25;;;;;11.47;56.72;101583.88;5022048;28;45935;-94
2022/02/03 13:26:49;;;;;;;;;25.50;20.25;;;;;11.52;56.85;101578.50;5039929;28;45765;-94
2022/02/03 13:29:43;;;;;;;;;32.00;28.50;;;;;11.56;56.39;101580.16;5022744;28;45249;-95
2022/02/03 13:32:10;;;;;;;;;26.50;24.75;;;;;11.53;56.22;101575.00;5035513;28;45463;-93
2022/02/03 13:34:52;;;;;;;;;26.00;24.25;;;;;11.53;56.60;101569.72;5042851;28;45696;-95
2022/02/03 13:37:24;;;;;;;;;36.75;32.50;;;;;11.55;56.62;101578.44;5010767;28;45922;-94
2022/02/03 13:40:13;;;;;;;;;29.50;24.50;;;;;11.54;56.43;101579.34;5022656;28;45289;-95
2022/02/03 13:42:45;;;;;;;;;20.75;18.50;;;;;11.55;56.43;101581.06;5034960;28;46242;-94
2022/02/03 13:45:11;;;;;;;;;38.75;33.00;;;;;11.50;56.23;101572.41;5022921;28;47026;-94
2022/02/03 13:47:37;;;;;;;;;32.75;29.00;;;;;11.46;56.88;101569.84;5022404;28;45277;-95
2022/02/03 13:50:12;;;;;;;;;26.75;26.00;;;;;11.42;56.39;101572.59;5021827;28;44674;-93
2022/02/03 13:52:47;;;;;;;;;26.25;25.00;;;;;11.34;56.59;101564.88;5022572;28;47100;-94
2022/02/03 14:18:06;;;;;;;;;28.25;24.50;;;;;10.87;57.52;101558.84;5039694;28;46132;-93
2022/02/03 14:20:40;;;;;;;;;29.25;25.00;;;;;10.79;57.62;101547.66;5017674;28;45449;-92
2022/02/03 14:28:16;;;;;;;;;25.50;21.75;;;;;10.79;58.05;101547.66;5042589;28;45428;-93
2022/02/03 14:30:46;;;;;;;;;28.50;24.75;;;;;10.79;58.32;101553.75;5024624;28;45664;-92
2022/02/03 14:33:16;;;;;;;;;27.00;22.00;;;;;10.84;58.61;101553.66;5043009;28;45184;-91
2022/02/03 14:35:43;;;;;;;;;20.50;13.75;;;;;10.88;58.51;101544.81;5024347;28;47270;-91
2022/02/03 14:38:17;;;;;;;;;35.75;29.00;;;;;10.94;57.85;101540.34;5024830;28;46309;-92
2022/02/03 14:41:05;;;;;;;;;26.25;21.75;;;;;10.90;58.39;101542.16;5041703;28;45382;-92
2022/02/03 14:43:30;;;;;;;;;29.25;25.00;;;;;10.88;58.00;101544.81;5024390;28;45357;-93
2022/02/03 14:45:58;;;;;;;;;43.25;34.50;;;;;10.86;58.18;101543.13;5024586;28;47061;-92
2022/02/03 14:48:23;;;;;;;;;27.75;22.75;;;;;10.85;58.21;101533.50;5024690;28;47402;-92
2022/02/03 14:50:50;;;;;;;;;29.50;26.75;;;;;10.90;58.76;101529.00;5010670;28;45272;-92
2022/02/03 14:53:19;;;;;;;;;60.50;48.25;;;;;10.95;57.93;101535.03;5042117;28;45308;-92
2022/02/03 14:58:30;;;;;;;;;64.00;45.00;;;;;11.04;57.84;101526.06;5028789;28;46032;-94
2022/02/03 15:00:57;;;;;;;;;45.00;34.00;;;;;11.00;58.01;101533.16;5024136;28;45254;-92
2022/02/03 15:03:24;;;;;;;;;28.50;25.25;;;;;11.04;57.85;101526.06;5015036;28;45198;-93
2022/02/03 15:05:51;;;;;;;;;29.00;22.75;;;;;11.10;58.22;101527.69;5018042;28;46181;-92
2022/02/03 15:08:23;;;;;;;;;19.00;16.25;;;;;11.16;57.91;101524.91;5023856;28;47952;-92
2022/02/03 15:13:46;;;;;;;;;19.50;16.75;;;;;11.27;57.94;101521.16;5036803;28;45825;-91
2022/02/03 15:16:14;;;;;;;;;21.75;18.50;;;;;11.29;57.76;101522.00;5040991;28;46518;-92
2022/02/03 15:18:39;;;;;;;;;24.75;21.75;;;;;11.33;58.06;101515.78;5023280;28;46801;-92
2022/02/03 15:21:06;;;;;;;;;21.75;18.75;;;;;11.34;58.12;101521.00;5038084;28;45352;-92
2022/02/03 15:23:32;;;;;;;;;20.75;19.00;;;;;11.35;57.67;101512.22;5014258;28;45438;-92
2022/02/03 15:25:58;;;;;;;;;25.00;21.50;;;;;11.39;57.66;101520.88;5023967;28;46068;-93
2022/02/03 15:28:24;;;;;;;;;26.50;19.25;;;;;11.41;57.66;101524.34;5037031;28;47068;-92
2022/02/03 15:30:50;;;;;;;;;26.50;20.50;;;;;11.44;57.61;101526.91;5024081;28;45440;-92
2022/02/03 15:33:16;;;;;;;;;31.25;22.75;;;;;11.43;57.12;101521.69;5024501;28;45242;-92
2022/02/03 15:35:49;;;;;;;;;28.25;20.25;;;;;11.40;57.47;101522.63;5040671;28;45411;-92
2022/02/03 15:38:18;;;;;;;;;26.25;22.50;;;;;11.39;58.00;101518.25;5039085;28;46570;-91
2022/02/03 15:40:44;;;;;;;;;29.75;23.00;;;;;11.42;57.41;101518.19;5036913;28;45990;-92
2022/02/03 15:43:23;;;;;;;;;29.00;24.00;;;;;11.43;57.35;101517.25;5022771;28;45391;-92
2022/02/03 15:45:53;;;;;;;;;19.00;16.00;;;;;11.44;57.63;101519.00;5038407;28;45659;-88
2022/02/03 16:17:39;;;;;;;;;19.75;18.25;;;;;11.44;58.38;101511.13;5024653;28;45449;-89
2022/02/03 16:20:20;;;;;;;;;24.25;21.00;;;;;11.46;58.67;101504.03;5036852;28;46283;-89
2022/02/03 16:54:43;;;;;;;;;27.00;23.50;;;;;11.53;58.33;101524.97;5033951;28;45838;-86
2022/02/03 16:57:15;;;;;;;;;20.00;19.50;;;;;11.53;58.94;101524.97;5039562;28;45452;-87
2022/02/03 17:00:05;;;;;;;;;18.75;17.75;;;;;11.53;58.35;101519.69;5018926;28;46300;-87
2022/02/03 17:02:28;;;;;;;;;21.50;19.75;;;;;11.52;58.33;101523.22;5032184;28;45338;-87
2022/02/03 17:04:57;;;;;;;;;20.00;18.00;;;;;11.51;58.09;101522.34;5034466;28;45435;-87
2022/02/03 17:07:22;;;;;;;;;23.75;22.25;;;;;11.49;58.19;101526.78;5036709;28;45437;-86
2022/02/03 17:09:49;;;;;;;;;19.75;17.75;;;;;11.50;58.64;101530.31;5039268;28;46023;-88
2022/02/03 17:12:17;;;;;;;;;20.75;15.00;;;;;11.49;58.52;101526.78;5025913;28;48026;-88
2022/02/03 17:14:44;;;;;;;;;17.75;16.75;;;;;11.53;58.77;101520.53;5039201;28;45264;-88
2022/02/03 17:17:10;;;;;;;;;17.25;15.25;;;;;11.54;58.66;101529.31;5022069;28;45254;-88
2022/02/03 17:19:39;;;;;;;;;16.50;16.00;;;;;11.53;58.88;101528.44;5039758;28;45525;-88
2022/02/03 17:22:06;;;;;;;;;20.00;16.25;;;;;11.51;58.45;101522.34;5040100;28;46055;-88
2022/02/03 17:24:34;;;;;;;;;22.25;20.25;;;;;11.52;58.56;101523.22;5039385;28;45404;-88
2022/02/03 17:32:05;;;;;;;;;26.50;22.00;;;;;11.55;58.78;101528.44;5039874;28;45284;-88
2022/02/03 18:18:13;;;;;;;;;26.25;23.75;;;;;11.57;59.16;101543.28;5039281;28;45146;-87
2022/02/03 18:26:06;;;;;;;;;19.25;19.00;;;;;11.59;59.19;101556.41;5039263;28;46051;-88
2022/02/03 18:50:19;;;;;;;;;24.00;24.00;;;;;11.51;59.59;101563.63;5038649;28;45462;-88
2022/02/03 18:55:21;;;;;;;;;30.00;23.75;;;;;11.48;59.76;101560.16;5038560;28;45256;-88
2022/02/03 18:57:56;;;;;;;;;26.25;24.25;;;;;11.51;59.98;101569.75;5020621;28;47600;-88
2022/02/03 19:27:35;;;;;;;;;27.00;25.00;;;;;11.37;60.65;101556.91;5041607;28;45979;-88
2022/02/03 19:58:13;;;;;;;;;25.75;22.25;;;;;11.21;61.31;101546.72;5040894;28;45441;-87
2022/02/03 20:10:42;;;;;;;;;22.75;21.00;;;;;11.23;61.45;101557.22;5040337;28;45573;-87
2022/02/03 20:13:07;;;;;;;;;27.50;21.50;;;;;11.23;61.43;101566.00;5048835;28;45491;-87
2022/02/03 20:15:37;;;;;;;;;23.25;21.75;;;;;11.22;61.76;101564.25;5039298;28;45363;-87
2022/02/03 20:18:10;;;;;;;;;23.00;20.75;;;;;11.24;61.64;101567.72;5031538;28;45273;-86
2022/02/03 20:20:35;;;;;;;;;26.25;23.25;;;;;11.23;61.59;101559.88;5040550;28;45490;-87
2022/02/03 20:23:04;;;;;;;;;29.75;24.25;;;;;11.25;61.70;101569.47;5033893;28;45727;-87
2022/02/03 20:25:29;;;;;;;;;23.75;21.25;;;;;11.24;61.70;101570.34;5033783;28;45265;-86
2022/02/03 20:27:54;;;;;;;;;24.75;22.25;;;;;11.25;61.39;101563.31;5038389;28;45193;-87
2022/02/03 20:30:20;;;;;;;;;26.25;21.25;;;;;11.24;61.61;101570.34;5029975;28;45664;-87
2022/02/03 20:32:45;;;;;;;;;24.00;21.25;;;;;11.24;61.77;101572.97;5039839;28;46344;-87
2022/02/03 20:35:11;;;;;;;;;24.50;23.00;;;;;11.27;61.66;101571.19;5023667;28;45620;-86
2022/02/03 20:37:37;;;;;;;;;25.25;22.00;;;;;11.28;61.59;101567.66;5039650;28;45322;-86
2022/02/03 20:40:04;;;;;;;;;22.75;19.75;;;;;11.24;61.89;101570.34;5022451;28;46257;-87
2022/02/03 20:42:30;;;;;;;;;25.50;19.50;;;;;11.21;61.77;101574.81;5040463;28;47232;-88
2022/02/03 20:44:55;;;;;;;;;23.50;20.50;;;;;11.17;61.75;101576.66;5022101;28;45459;-88
2022/02/03 20:47:24;;;;;;;;;23.75;20.25;;;;;11.11;62.05;101567.13;5022273;28;45377;-88
2022/02/03 20:49:50;;;;;;;;;23.25;21.50;;;;;11.11;62.01;101580.28;5044591;28;45850;-88
2022/02/03 20:52:18;;;;;;;;;27.75;23.25;;;;;11.11;62.05;101582.91;5022666;28;48137;-87
2022/02/03 20:54:44;;;;;;;;;21.00;21.00;;;;;11.11;62.26;101592.59;5022092;28;45309;-87
2022/02/03 20:57:09;;;;;;;;;22.00;21.25;;;;;11.05;62.17;101585.69;5040413;28;45286;-87
2022/02/03 21:00:04;;;;;;;;;31.50;25.50;;;;;11.06;62.37;101589.19;5039522;28;45619;-87
2022/02/03 21:07:26;;;;;;;;;18.25;17.75;;;;;11.08;62.46;101582.13;5040005;28;45444;-87
2022/02/03 21:09:51;;;;;;;;;19.50;18.75;;;;;11.06;62.36;101576.03;5039006;28;45438;-87
2022/02/03 21:12:16;;;;;;;;;25.75;21.00;;;;;11.06;62.29;101583.91;5025940;28;47119;-87
2022/02/03 21:14:42;;;;;;;;;18.75;16.25;;;;;11.03;62.44;101575.19;5031085;28;45386;-87
2022/02/03 21:17:08;;;;;;;;;27.75;23.00;;;;;11.10;62.51;101577.69;5021467;28;45525;-87
2022/02/03 21:19:33;;;;;;;;;24.50;20.75;;;;;11.08;62.54;101571.59;5039252;28;45537;-87
2022/02/03 21:21:59;;;;;;;;;23.25;20.00;;;;;11.10;62.67;101583.81;5039574;28;45452;-87
2022/02/03 21:24:24;;;;;;;;;23.25;21.25;;;;;11.10;62.03;101580.31;5037560;28;45469;-87
2022/02/03 21:26:52;;;;;;;;;21.25;19.25;;;;;11.10;62.52;101581.19;5034990;28;45959;-88
2022/02/03 21:29:20;;;;;;;;;27.75;20.50;;;;;11.12;62.47;101584.66;5032425;28;45324;-88
2022/02/03 21:31:45;;;;;;;;;21.75;19.75;;;;;11.13;62.64;101586.38;5033034;28;45374;-88
2022/02/03 21:34:15;;;;;;;;;24.75;20.75;;;;;11.12;62.38;101581.13;5011900;28;45297;-86
2022/02/03 21:36:42;;;;;;;;;23.50;20.00;;;;;11.14;62.65;101593.38;5039228;28;45325;-88
2022/02/03 21:39:09;;;;;;;;;21.50;19.25;;;;;11.14;62.40;101587.22;5036427;28;45400;-88
2022/02/03 21:41:34;;;;;;;;;18.50;17.50;;;;;11.14;62.42;101592.50;5036332;28;45367;-88
2022/02/03 21:44:00;;;;;;;;;23.25;20.00;;;;;11.14;62.34;101590.72;5037625;28;46007;-87
2022/02/03 21:46:25;;;;;;;;;26.50;19.75;;;;;11.11;62.13;101582.91;5039513;28;45262;-88
2022/02/03 21:48:50;;;;;;;;;18.50;18.50;;;;;11.12;62.49;101587.28;5038676;28;45483;-88
2022/02/03 21:51:22;;;;;;;;;19.00;16.25;;;;;11.13;62.42;101593.41;5034964;28;46430;-88
2022/02/03 21:53:47;;;;;;;;;19.75;17.00;;;;;11.14;62.61;101597.75;5038596;28;45738;-87
2022/02/03 21:56:14;;;;;;;;;22.50;18.00;;;;;11.15;62.47;101591.59;5039740;28;45256;-87
2022/02/03 21:58:39;;;;;;;;;20.25;17.00;;;;;11.13;62.37;101596.03;5038821;28;45474;-87
2022/02/03 22:01:05;;;;;;;;;17.75;16.25;;;;;11.13;62.47;101586.38;5021320;28;46228;-87
2022/02/03 22:03:30;;;;;;;;;22.75;18.00;;;;;11.13;62.22;101596.03;5026556;28;45170;-88
2022/02/03 22:05:58;;;;;;;;;21.00;20.25;;;;;11.12;62.58;101599.56;5039584;28;45453;-87
2022/02/03 22:08:24;;;;;;;;;23.75;19.50;;;;;11.07;62.54;101597.03;5039068;28;45439;-87
2022/02/03 22:10:50;;;;;;;;;20.75;16.25;;;;;11.09;62.66;101596.97;5043889;28;45386;-88
2022/02/03 22:13:16;;;;;;;;;17.50;17.25;;;;;11.14;62.73;101597.75;5039279;28;45395;-87
2022/02/03 22:15:42;;;;;;;;;17.50;13.75;;;;;11.12;62.48;101591.66;5039296;28;46095;-87
2022/02/03 22:18:12;;;;;;;;;19.75;17.75;;;;;11.12;62.53;101599.56;5038515;28;45274;-87
2022/02/03 22:21:04;;;;;;;;;20.75;18.00;;;;;11.11;62.58;101595.22;5035797;28;46617;-87
2022/02/03 22:23:44;;;;;;;;;24.25;19.25;;;;;11.10;62.52;101596.09;5026217;28;45312;-87
2022/02/03 22:47:24;;;;;;;;;18.75;16.75;;;;;11.06;62.85;101603.22;5034856;28;45481;-85
2022/02/03 22:49:49;;;;;;;;;18.25;15.25;;;;;11.06;62.79;101610.22;5038338;28;45263;-84